createdAt,value
2023-02-26T00:00:15.992Z,99.90
2023-02-26T00:02:45.974Z,99.90
2023-02-26T00:05:15.986Z,99.90
2023-02-26T00:07:45.375Z,99.90
2023-02-26T00:10:16.713Z,99.90
2023-02-26T00:12:46.514Z,99.90
2023-02-26T00:15:17.736Z,99.90
2023-02-26T00:17:53.812Z,99.90
2023-02-26T00:20:22.863Z,99.90
2023-02-26T00:22:52.076Z,99.90
2023-02-26T00:25:22.153Z,99.90
2023-02-26T00:27:51.562Z,99.90
2023-02-26T00:30:21.177Z,99.90
2023-02-26T00:32:50.615Z,99.90
2023-02-26T00:35:19.979Z,99.90
2023-02-26T00:38:02.296Z,99.90
2023-02-26T00:40:40.984Z,99.90
2023-02-26T00:43:14.680Z,99.90
2023-02-26T00:45:48.537Z,99.90
2023-02-26T00:48:41.373Z,99.90
2023-02-26T00:51:22.358Z,99.90
2023-02-26T00:54:00.731Z,99.90
2023-02-26T00:56:30.734Z,99.90
2023-02-26T00:58:59.609Z,99.90
2023-02-26T01:01:28.320Z,99.90
2023-02-26T01:03:57.797Z,99.90
2023-02-26T01:06:29.792Z,99.90
2023-02-26T01:09:06.704Z,99.90
2023-02-26T01:11:38.104Z,99.90
2023-02-26T01:14:07.343Z,99.90
2023-02-26T01:16:50.157Z,99.90
2023-02-26T01:19:28.350Z,99.90
2023-02-26T01:22:04.692Z,99.90
2023-02-26T01:24:36.312Z,99.90
2023-02-26T01:27:07.089Z,99.90
2023-02-26T01:29:36.011Z,99.90
2023-02-26T01:32:12.590Z,99.90
2023-02-26T01:34:47.757Z,99.90
2023-02-26T01:37:27.553Z,99.90
2023-02-26T01:40:21.039Z,99.90
2023-02-26T01:42:55.885Z,99.90
2023-02-26T01:45:32.885Z,99.90
2023-02-26T01:48:07.073Z,99.90
2023-02-26T01:50:37.986Z,99.90
2023-02-26T01:53:24.082Z,99.90
2023-02-26T01:55:59.146Z,99.90
2023-02-26T01:58:34.534Z,99.90
2023-02-26T02:01:04.068Z,99.90
2023-02-26T02:03:38.291Z,99.90
2023-02-26T02:06:09.460Z,99.90
2023-02-26T02:08:39.841Z,99.90
2023-02-26T02:11:10.963Z,99.90
2023-02-26T02:13:56.146Z,99.90
2023-02-26T02:16:32.598Z,99.90
2023-02-26T02:19:16.543Z,99.90
2023-02-26T02:22:04.831Z,99.90
2023-02-26T02:24:41.851Z,99.90
2023-02-26T02:27:16.645Z,99.90
2023-02-26T02:30:11.780Z,99.90
2023-02-26T02:32:47.602Z,99.90
2023-02-26T02:35:22.124Z,99.90
2023-02-26T02:37:58.556Z,99.90
2023-02-26T02:40:33.419Z,99.90
2023-02-26T02:43:05.749Z,99.90
2023-02-26T02:45:39.897Z,99.90
2023-02-26T02:48:18.375Z,99.90
2023-02-26T02:50:51.374Z,99.90
2023-02-26T02:53:23.970Z,99.90
2023-02-26T02:55:57.469Z,99.90
2023-02-26T02:58:30.508Z,99.90
2023-02-26T03:01:03.708Z,99.90
2023-02-26T03:03:40.594Z,99.90
2023-02-26T03:06:09.817Z,99.90
2023-02-26T03:08:42.357Z,99.90
2023-02-26T03:11:11.425Z,99.90
2023-02-26T03:13:41.583Z,99.90
2023-02-26T03:16:35.602Z,99.90
2023-02-26T03:19:15.594Z,99.90
2023-02-26T03:21:51.485Z,99.90
2023-02-26T03:24:38.992Z,99.90
2023-02-26T03:27:17.848Z,99.90
2023-02-26T03:29:54.418Z,99.90
2023-02-26T03:32:27.755Z,99.90
2023-02-26T03:35:02.987Z,99.90
2023-02-26T03:37:37.473Z,99.90
2023-02-26T03:40:13.005Z,99.90
2023-02-26T03:42:47.601Z,99.90
2023-02-26T03:45:21.045Z,99.90
2023-02-26T03:47:53.878Z,99.90
2023-02-26T03:50:29.265Z,99.90
2023-02-26T03:53:19.167Z,99.90
2023-02-26T03:55:55.652Z,99.90
2023-02-26T03:58:48.680Z,99.90
2023-02-26T04:01:43.983Z,99.90
2023-02-26T04:04:18.953Z,99.90
2023-02-26T04:06:49.752Z,99.90
2023-02-26T04:09:18.852Z,99.90
2023-02-26T04:11:49.669Z,99.90
2023-02-26T04:14:18.719Z,99.90
2023-02-26T04:16:47.937Z,99.90
2023-02-26T04:19:16.823Z,99.90
2023-02-26T04:21:46.420Z,99.90
2023-02-26T04:24:18.571Z,99.90
2023-02-26T04:26:47.618Z,99.90
2023-02-26T04:29:16.696Z,99.90
2023-02-26T04:31:45.690Z,99.90
2023-02-26T04:34:14.448Z,99.90
2023-02-26T04:36:43.472Z,99.90
2023-02-26T04:39:12.562Z,99.90
2023-02-26T04:41:43.686Z,99.90
2023-02-26T04:44:12.613Z,99.90
2023-02-26T04:46:43.677Z,99.90
2023-02-26T04:49:12.558Z,99.90
2023-02-26T04:51:45.035Z,99.90
2023-02-26T04:54:16.871Z,99.90
2023-02-26T04:56:47.041Z,99.90
2023-02-26T04:59:15.890Z,99.90
2023-02-26T05:01:44.712Z,99.90
2023-02-26T05:04:13.577Z,99.90
2023-02-26T05:06:48.657Z,99.90
2023-02-26T05:09:17.412Z,99.90
2023-02-26T05:11:48.033Z,99.90
2023-02-26T05:14:17.441Z,99.90
2023-02-26T05:16:49.493Z,99.90
2023-02-26T05:19:18.515Z,99.90
2023-02-26T05:21:50.349Z,99.90
2023-02-26T05:24:19.078Z,99.90
2023-02-26T05:26:49.561Z,99.90
2023-02-26T05:29:18.342Z,99.90
2023-02-26T05:31:47.174Z,99.90
2023-02-26T05:34:16.204Z,99.90
2023-02-26T05:36:45.118Z,99.90
2023-02-26T05:39:14.044Z,99.90
2023-02-26T05:41:42.724Z,99.90
2023-02-26T05:44:12.836Z,99.90
2023-02-26T05:46:41.743Z,99.90
2023-02-26T05:49:11.005Z,99.90
2023-02-26T05:51:39.793Z,99.90
2023-02-26T05:54:08.644Z,99.90
2023-02-26T05:56:37.407Z,99.90
2023-02-26T05:59:06.343Z,99.90
2023-02-26T06:01:37.262Z,99.90
2023-02-26T06:04:06.677Z,99.90
2023-02-26T06:06:35.743Z,99.90
2023-02-26T06:09:04.792Z,99.90
2023-02-26T06:11:34.210Z,99.90
2023-02-26T06:14:03.112Z,99.90
2023-02-26T06:16:32.944Z,99.90
2023-02-26T06:19:03.236Z,99.90
2023-02-26T06:21:32.000Z,99.90
2023-02-26T06:24:00.826Z,99.90
2023-02-26T06:26:29.785Z,99.90
2023-02-26T06:28:58.681Z,99.90
2023-02-26T06:31:27.374Z,99.90
2023-02-26T06:33:56.176Z,99.90
2023-02-26T06:36:26.577Z,99.90
2023-02-26T06:38:55.453Z,99.90
2023-02-26T06:41:24.263Z,99.90
2023-02-26T06:43:53.094Z,99.90
2023-02-26T06:46:21.874Z,99.90
2023-02-26T06:48:50.554Z,99.90
2023-02-26T06:51:19.794Z,99.90
2023-02-26T06:53:49.936Z,99.90
2023-02-26T06:56:18.575Z,99.90
2023-02-26T06:58:47.384Z,99.90
2023-02-26T07:01:16.137Z,99.90
2023-02-26T07:03:44.808Z,99.90
2023-02-26T07:06:26.841Z,99.90
2023-02-26T07:08:57.821Z,99.90
2023-02-26T07:11:26.623Z,99.90
2023-02-26T07:13:55.427Z,99.90
2023-02-26T07:16:24.594Z,99.90
2023-02-26T07:18:53.456Z,99.90
2023-02-26T07:21:22.175Z,99.90
2023-02-26T07:23:50.941Z,99.90
2023-02-26T07:26:21.230Z,99.90
2023-02-26T07:28:49.953Z,99.90
2023-02-26T07:31:18.875Z,99.90
2023-02-26T07:33:47.675Z,99.90
2023-02-26T07:36:17.078Z,99.90
2023-02-26T07:38:45.840Z,99.90
2023-02-26T07:41:14.595Z,99.90
2023-02-26T07:43:44.640Z,99.90
2023-02-26T07:46:13.381Z,99.90
2023-02-26T07:48:42.282Z,99.90
2023-02-26T07:51:11.281Z,99.90
2023-02-26T07:53:40.095Z,99.90
2023-02-26T07:56:09.911Z,99.90
2023-02-26T07:58:38.536Z,99.90
2023-02-26T08:01:08.629Z,99.90
2023-02-26T08:03:37.447Z,99.90
2023-02-26T08:06:08.528Z,99.90
2023-02-26T08:08:37.202Z,99.90
2023-02-26T08:11:06.294Z,99.90
2023-02-26T08:13:34.994Z,99.90
2023-02-26T08:16:03.794Z,99.90
2023-02-26T08:18:33.846Z,99.90
2023-02-26T08:21:02.667Z,99.90
2023-02-26T08:23:31.371Z,99.90
2023-02-26T08:26:03.607Z,99.90
2023-02-26T08:28:32.972Z,99.90
2023-02-26T08:31:02.708Z,99.90
2023-02-26T08:33:33.265Z,99.90
2023-02-26T08:36:02.189Z,99.90
2023-02-26T08:38:32.051Z,99.90
2023-02-26T08:41:01.376Z,99.90
2023-02-26T08:43:30.184Z,99.90
2023-02-26T08:46:00.191Z,99.90
2023-02-26T08:48:28.986Z,99.90
2023-02-26T08:50:59.215Z,99.90
2023-02-26T08:53:28.008Z,99.90
2023-02-26T08:55:56.768Z,99.90
2023-02-26T08:58:25.438Z,99.90
2023-02-26T09:00:54.552Z,99.90
2023-02-26T09:03:23.363Z,99.90
2023-02-26T09:05:52.732Z,99.90
2023-02-26T09:08:22.921Z,99.90
2023-02-26T09:10:51.790Z,99.90
2023-02-26T09:13:20.646Z,99.90
2023-02-26T09:15:50.894Z,99.90
2023-02-26T09:18:19.677Z,99.90
2023-02-26T09:20:48.406Z,99.90
2023-02-26T09:23:17.174Z,99.90
2023-02-26T09:25:47.539Z,99.90
2023-02-26T09:28:16.307Z,99.90
2023-02-26T09:30:45.103Z,99.90
2023-02-26T09:33:13.811Z,99.90
2023-02-26T09:35:42.833Z,99.90
2023-02-26T09:38:11.637Z,99.90
2023-02-26T09:40:47.619Z,99.90
2023-02-26T09:43:34.324Z,99.90
2023-02-26T09:46:07.265Z,99.90
2023-02-26T09:48:38.548Z,99.90
2023-02-26T09:51:10.672Z,99.90
2023-02-26T09:53:41.599Z,99.90
2023-02-26T09:56:17.758Z,99.90
2023-02-26T09:58:47.157Z,99.90
2023-02-26T10:01:21.926Z,99.90
2023-02-26T10:04:02.071Z,99.90
2023-02-26T10:06:34.249Z,99.90
2023-02-26T10:09:32.115Z,99.90
2023-02-26T10:12:05.506Z,99.90
2023-02-26T10:14:44.602Z,99.90
2023-02-26T10:17:19.044Z,99.90
2023-02-26T10:19:57.611Z,99.90
2023-02-26T10:22:31.568Z,99.90
2023-02-26T10:25:06.535Z,99.90
2023-02-26T10:27:56.836Z,99.90
2023-02-26T10:30:34.255Z,99.90
2023-02-26T10:33:13.132Z,99.90
2023-02-26T10:35:45.084Z,99.90
2023-02-26T10:38:17.225Z,99.90
2023-02-26T10:40:51.671Z,99.90
2023-02-26T10:43:27.634Z,99.90
2023-02-26T10:46:09.813Z,99.90
2023-02-26T10:48:51.008Z,99.90
2023-02-26T10:51:22.291Z,99.90
2023-02-26T10:53:55.365Z,99.90
2023-02-26T10:56:28.718Z,99.90
2023-02-26T10:58:58.851Z,99.90
2023-02-26T11:01:31.797Z,99.90
2023-02-26T11:04:03.649Z,99.90
2023-02-26T11:06:35.852Z,99.90
2023-02-26T11:09:07.064Z,99.90
2023-02-26T11:11:43.491Z,99.90
2023-02-26T11:14:14.621Z,99.90
2023-02-26T11:16:47.748Z,99.90
2023-02-26T11:19:18.415Z,99.90
2023-02-26T11:21:49.007Z,99.90
2023-02-26T11:24:22.882Z,99.90
2023-02-26T11:26:55.658Z,99.90
2023-02-26T11:29:26.791Z,99.90
2023-02-26T11:31:58.180Z,99.90
2023-02-26T11:34:28.481Z,99.90
2023-02-26T11:36:59.477Z,99.60
2023-02-26T11:39:30.576Z,99.20
2023-02-26T11:42:02.219Z,98.60
2023-02-26T11:44:38.667Z,98.40
2023-02-26T11:47:12.851Z,97.00
2023-02-26T11:49:44.772Z,97.20
2023-02-26T11:52:24.495Z,96.70
2023-02-26T11:54:57.385Z,96.80
2023-02-26T11:57:29.101Z,98.00
2023-02-26T12:00:01.354Z,98.50
2023-02-26T12:02:36.397Z,99.30
2023-02-26T12:05:08.067Z,98.60
2023-02-26T12:07:37.370Z,98.10
2023-02-26T12:10:15.140Z,98.60
2023-02-26T12:12:55.252Z,98.30
2023-02-26T12:15:33.362Z,97.30
2023-02-26T12:18:27.093Z,96.70
2023-02-26T12:21:07.186Z,97.60
2023-02-26T12:23:57.971Z,96.70
2023-02-26T12:26:28.401Z,96.80
2023-02-26T12:29:28.656Z,97.60
2023-02-26T12:32:31.140Z,95.70
2023-02-26T12:35:25.227Z,96.00
2023-02-26T12:38:20.103Z,95.50
2023-02-26T12:41:20.902Z,95.90
2023-02-26T12:43:51.580Z,97.80
2023-02-26T12:46:44.355Z,98.70
2023-02-26T12:49:48.143Z,98.90
2023-02-26T12:52:50.233Z,99.90
2023-02-26T12:55:32.219Z,99.00
2023-02-26T12:58:39.129Z,98.90
2023-02-26T13:01:34.137Z,98.90
2023-02-26T13:04:36.812Z,98.30
2023-02-26T13:07:22.206Z,97.10
2023-02-26T13:10:00.374Z,97.30
2023-02-26T13:12:43.553Z,96.40
2023-02-26T13:15:39.260Z,96.80
2023-02-26T13:18:15.687Z,97.20
2023-02-26T13:20:56.566Z,97.80
2023-02-26T13:23:28.058Z,97.40
2023-02-26T13:26:01.279Z,96.10
2023-02-26T13:28:40.278Z,96.50
2023-02-26T13:31:13.415Z,95.30
2023-02-26T13:33:44.401Z,96.20
2023-02-26T13:36:17.223Z,95.80
2023-02-26T13:38:55.053Z,96.00
2023-02-26T13:41:30.549Z,95.10
2023-02-26T13:44:13.467Z,94.80
2023-02-26T13:47:07.752Z,94.30
2023-02-26T13:49:49.180Z,94.60
2023-02-26T13:52:28.279Z,93.50
2023-02-26T13:54:59.688Z,93.90
2023-02-26T13:57:52.501Z,93.90
2023-02-26T14:00:29.934Z,93.30
2023-02-26T14:02:59.835Z,92.60
2023-02-26T14:05:50.965Z,92.30
2023-02-26T14:08:43.710Z,92.10
2023-02-26T14:11:47.005Z,91.60
2023-02-26T14:14:30.734Z,90.60
2023-02-26T14:17:31.941Z,90.30
2023-02-26T14:20:20.211Z,91.00
2023-02-26T14:22:52.806Z,90.10
2023-02-26T14:25:34.877Z,90.80
2023-02-26T14:28:33.398Z,91.50
2023-02-26T14:31:14.196Z,91.60
2023-02-26T14:33:47.062Z,91.50
2023-02-26T14:36:25.986Z,91.60
2023-02-26T14:38:56.785Z,90.60
2023-02-26T14:41:32.798Z,90.00
2023-02-26T14:44:03.928Z,89.00
2023-02-26T14:46:33.028Z,89.70
2023-02-26T14:49:02.211Z,89.30
2023-02-26T14:51:46.811Z,89.70
2023-02-26T14:54:37.881Z,90.10
2023-02-26T14:57:16.600Z,90.80
2023-02-26T14:59:52.242Z,90.30
2023-02-26T15:02:29.465Z,89.60
2023-02-26T15:05:15.386Z,90.30
2023-02-26T15:08:15.635Z,90.20
2023-02-26T15:11:00.289Z,90.20
2023-02-26T15:13:45.532Z,90.30
2023-02-26T15:16:27.658Z,91.30
2023-02-26T15:19:24.033Z,91.80
2023-02-26T15:22:11.261Z,91.50
2023-02-26T15:24:41.233Z,91.40
2023-02-26T15:27:16.305Z,91.30
2023-02-26T15:29:50.422Z,92.00
2023-02-26T15:32:25.952Z,92.40
2023-02-26T15:35:01.687Z,92.10
2023-02-26T15:37:33.726Z,92.20
2023-02-26T15:40:05.699Z,92.90
2023-02-26T15:42:39.080Z,93.40
2023-02-26T15:45:15.665Z,93.80
2023-02-26T15:47:44.567Z,94.10
2023-02-26T15:50:17.228Z,94.10
2023-02-26T15:52:46.923Z,94.00
2023-02-26T15:55:18.876Z,94.00
2023-02-26T15:57:48.514Z,93.80
2023-02-26T16:00:24.705Z,93.90
2023-02-26T16:02:57.177Z,93.90
2023-02-26T16:05:26.752Z,94.20
2023-02-26T16:07:56.503Z,94.20
2023-02-26T16:10:38.272Z,94.80
2023-02-26T16:13:09.009Z,95.30
2023-02-26T16:15:41.237Z,95.40
2023-02-26T16:18:16.555Z,95.60
2023-02-26T16:20:48.961Z,95.90
2023-02-26T16:23:21.903Z,96.00
2023-02-26T16:25:54.160Z,95.80
2023-02-26T16:28:25.018Z,96.00
2023-02-26T16:30:58.279Z,96.30
2023-02-26T16:33:27.937Z,96.50
2023-02-26T16:35:59.092Z,96.90
2023-02-26T16:38:29.385Z,96.80
2023-02-26T16:41:01.309Z,97.10
2023-02-26T16:43:50.972Z,97.00
2023-02-26T16:46:24.081Z,97.50
2023-02-26T16:48:56.428Z,97.70
2023-02-26T16:51:28.875Z,97.60
2023-02-26T16:54:01.649Z,98.10
2023-02-26T16:56:33.933Z,98.30
2023-02-26T16:59:06.572Z,98.60
2023-02-26T17:01:50.960Z,98.80
2023-02-26T17:04:22.520Z,99.60
2023-02-26T17:06:51.324Z,99.80
2023-02-26T17:09:34.257Z,99.60
2023-02-26T17:12:13.792Z,99.80
2023-02-26T17:14:44.323Z,99.90
2023-02-26T17:17:14.605Z,99.90
2023-02-26T17:19:43.312Z,99.90
2023-02-26T17:22:15.916Z,99.90
2023-02-26T17:24:47.539Z,99.90
2023-02-26T17:27:23.130Z,99.90
2023-02-26T17:29:52.665Z,99.90
2023-02-26T17:32:26.780Z,99.90
2023-02-26T17:34:56.025Z,99.90
2023-02-26T17:37:29.432Z,99.90
2023-02-26T17:39:59.814Z,99.90
2023-02-26T17:42:28.621Z,99.90
2023-02-26T17:44:57.460Z,99.90
2023-02-26T17:47:28.327Z,99.90
2023-02-26T17:49:57.132Z,99.90
2023-02-26T17:52:26.525Z,99.90
2023-02-26T17:54:55.469Z,99.90
2023-02-26T17:57:26.259Z,99.90
2023-02-26T17:59:54.909Z,99.90
2023-02-26T18:02:27.226Z,99.90
2023-02-26T18:04:57.528Z,99.90
2023-02-26T18:07:26.664Z,99.90
2023-02-26T18:09:55.443Z,99.90
2023-02-26T18:12:24.484Z,99.90
2023-02-26T18:14:53.753Z,99.90
2023-02-26T18:17:25.505Z,99.90
2023-02-26T18:19:54.369Z,99.90
2023-02-26T18:22:25.918Z,99.90
2023-02-26T18:24:55.796Z,99.90
2023-02-26T18:27:26.720Z,99.90
2023-02-26T18:29:55.777Z,99.90
2023-02-26T18:32:29.696Z,99.90
2023-02-26T18:34:58.438Z,99.90
2023-02-26T18:37:29.082Z,99.90
2023-02-26T18:39:57.792Z,99.90
2023-02-26T18:42:28.469Z,99.90
2023-02-26T18:44:57.224Z,99.90
2023-02-26T18:47:25.988Z,99.90
2023-02-26T18:49:57.156Z,99.90
2023-02-26T18:52:26.076Z,99.90
2023-02-26T18:54:56.507Z,99.90
2023-02-26T18:57:25.664Z,99.90
2023-02-26T18:59:54.864Z,99.90
2023-02-26T19:02:24.049Z,99.90
2023-02-26T19:04:53.821Z,99.90
2023-02-26T19:07:26.654Z,99.90
2023-02-26T19:09:56.945Z,99.90
2023-02-26T19:12:26.500Z,99.90
2023-02-26T19:14:55.403Z,99.90
2023-02-26T19:17:24.490Z,99.90
2023-02-26T19:19:53.357Z,99.90
2023-02-26T19:22:22.215Z,99.90
2023-02-26T19:24:51.468Z,99.90
2023-02-26T19:27:22.045Z,99.90
2023-02-26T19:29:50.784Z,99.90
2023-02-26T19:32:19.749Z,99.90
2023-02-26T19:34:48.643Z,99.90
2023-02-26T19:37:17.425Z,99.90
2023-02-26T19:39:46.197Z,99.90
2023-02-26T19:42:24.431Z,99.90
2023-02-26T19:44:53.719Z,99.90
2023-02-26T19:47:23.543Z,99.90
2023-02-26T19:49:52.257Z,99.90
2023-02-26T19:52:21.216Z,99.90
2023-02-26T19:54:52.309Z,99.90
2023-02-26T19:57:22.605Z,99.90
2023-02-26T19:59:51.607Z,99.90
2023-02-26T20:02:20.516Z,99.90
2023-02-26T20:04:51.477Z,99.90
2023-02-26T20:07:20.253Z,99.90
2023-02-26T20:09:49.900Z,99.90
2023-02-26T20:12:19.058Z,99.90
2023-02-26T20:14:49.501Z,99.90
2023-02-26T20:17:18.441Z,99.90
2023-02-26T20:19:47.470Z,99.90
2023-02-26T20:22:17.086Z,99.90
2023-02-26T20:24:45.798Z,99.90
2023-02-26T20:27:14.543Z,99.90
2023-02-26T20:29:43.358Z,99.90
2023-02-26T20:32:13.967Z,99.90
2023-02-26T20:34:42.998Z,99.90
2023-02-26T20:37:11.839Z,99.90
2023-02-26T20:39:40.844Z,99.90
2023-02-26T20:42:09.595Z,99.90
2023-02-26T20:44:38.287Z,99.90
2023-02-26T20:47:07.036Z,99.90
2023-02-26T20:49:37.162Z,99.90
2023-02-26T20:52:06.292Z,99.90
2023-02-26T20:54:35.083Z,99.90
2023-02-26T20:57:05.159Z,99.90
2023-02-26T20:59:33.957Z,99.90
2023-02-26T21:02:03.056Z,99.90
2023-02-26T21:04:31.866Z,99.90
2023-02-26T21:07:12.916Z,99.90
2023-02-26T21:09:41.892Z,99.90
2023-02-26T21:12:10.856Z,99.90
2023-02-26T21:14:39.676Z,99.90
2023-02-26T21:17:08.680Z,99.90
2023-02-26T21:19:37.386Z,99.90
2023-02-26T21:22:07.457Z,99.90
2023-02-26T21:24:36.317Z,99.90
2023-02-26T21:27:05.194Z,99.90
2023-02-26T21:29:34.087Z,99.90
2023-02-26T21:32:04.041Z,99.90
2023-02-26T21:34:34.969Z,99.90
2023-02-26T21:37:04.465Z,99.90
2023-02-26T21:39:35.274Z,99.90
2023-02-26T21:42:04.574Z,99.90
2023-02-26T21:44:34.606Z,99.90
2023-02-26T21:47:03.975Z,99.90
2023-02-26T21:49:33.524Z,99.90
2023-02-26T21:52:04.651Z,99.90
2023-02-26T21:54:38.336Z,99.90
2023-02-26T21:57:07.069Z,99.90
2023-02-26T21:59:36.500Z,99.90
2023-02-26T22:02:05.824Z,99.90
2023-02-26T22:04:34.817Z,99.90
2023-02-26T22:07:03.697Z,99.90
2023-02-26T22:09:32.412Z,99.90
2023-02-26T22:12:03.366Z,99.90
2023-02-26T22:14:32.105Z,99.90
2023-02-26T22:17:00.868Z,99.90
2023-02-26T22:19:29.540Z,99.90
2023-02-26T22:21:58.549Z,99.90
2023-02-26T22:24:27.518Z,99.90
2023-02-26T22:26:56.341Z,99.90
2023-02-26T22:29:26.683Z,99.90
2023-02-26T22:31:56.786Z,99.90
2023-02-26T22:34:25.771Z,99.90
2023-02-26T22:36:54.961Z,99.90
2023-02-26T22:39:23.748Z,99.90
2023-02-26T22:41:52.645Z,99.90
2023-02-26T22:44:21.460Z,99.90
2023-02-26T22:46:51.597Z,99.90
2023-02-26T22:49:20.730Z,99.90
2023-02-26T22:51:49.678Z,99.90
2023-02-26T22:54:18.449Z,99.90
2023-02-26T22:56:47.219Z,99.90
2023-02-26T22:59:15.992Z,99.90
2023-02-26T23:01:44.800Z,99.90
2023-02-26T23:04:15.330Z,99.90
2023-02-26T23:06:44.077Z,99.90
2023-02-26T23:09:12.848Z,99.90
2023-02-26T23:11:41.628Z,99.90
2023-02-26T23:14:10.396Z,99.90
2023-02-26T23:16:39.518Z,99.90
2023-02-26T23:19:08.688Z,99.90
2023-02-26T23:21:39.529Z,99.90
2023-02-26T23:24:08.557Z,99.90
2023-02-26T23:26:37.371Z,99.90
2023-02-26T23:29:06.711Z,99.90
2023-02-26T23:31:35.617Z,99.90
2023-02-26T23:34:07.069Z,99.90
2023-02-26T23:36:35.925Z,99.90
2023-02-26T23:39:06.559Z,99.90
2023-02-26T23:41:35.727Z,99.90
2023-02-26T23:44:04.562Z,99.90
2023-02-26T23:46:37.537Z,99.90
2023-02-26T23:49:06.391Z,99.90
2023-02-26T23:51:35.378Z,99.90
2023-02-26T23:54:05.941Z,99.90
2023-02-26T23:56:34.647Z,99.90
2023-02-26T23:59:03.735Z,99.90
